• Join FlightAware (Why Join?)
  • Login
  • US Flag 
05:19AM EDT


 

Airport Tracker/Info


-or-


 

Live Flight TrackerFlight Track Log ✈ ASH3732 ✈ 04-Jul-2013 ✈ KIAD - KALB

Flight Track Log - Related Links

Times and Time Zones

All times are in EDT time to prevent confusion due to time zone crossing. See the ASH3732 flight status page for this flight to view local times or setup timezone preferences in your user account.

Time Position Orientation Groundspeed Altitude Reporting Facility
EDT Latitude Longitude Course Direction KTS MPH feet Rate Location/Type
05:08PM 39.1226 -77.3026 35° Northeast  Level Estimated
05:09PM 39.2101 -77.2236 35° Northeast  Level Estimated
05:10PM 39.2975 -77.1444 35° Northeast  Level Estimated
05:11PM 39.3849 -77.0650 35° Northeast  Level Estimated
05:12PM 39.4722 -76.9854 35° Northeast  Level Estimated
05:13PM 39.5595 -76.9057 35° Northeast  Level Estimated
05:14PM 39.6467 -76.8257 35° Northeast  Level Estimated
05:15PM 39.7339 -76.7455 35° Northeast  Level Estimated
05:16PM 39.8210 -76.6651 35° Northeast  Level Estimated
05:17PM 39.9080 -76.5845 35° Northeast  Level Estimated
05:18PM 39.9950 -76.5037 35° Northeast  Level Estimated
05:19PM 40.0820 -76.4227 35° Northeast  Level Estimated
05:20PM 40.1688 -76.3415 36° Northeast  Level Estimated
05:21PM 40.2557 -76.2601 36° Northeast  Level Estimated
05:22PM 40.3424 -76.1785 36° Northeast  Level Estimated
05:23PM 40.4291 -76.0967 36° Northeast  Level Estimated
05:24PM 40.5158 -76.0146 36° Northeast  Level Estimated
05:25PM 40.6024 -75.9324 36° Northeast  Level Estimated
05:26PM 40.6889 -75.8499 36° Northeast  Level Estimated
05:27PM 40.7754 -75.7672 36° Northeast  Level Estimated
05:28PM 40.8618 -75.6843 36° Northeast  Level Estimated
05:29PM 40.9482 -75.6012 36° Northeast  Level Estimated
05:30PM 41.0345 -75.5179 36° Northeast  Level Estimated
05:31PM 41.1207 -75.4343 36° Northeast  Level Estimated
05:32PM 41.2069 -75.3505 36° Northeast  Level Estimated
05:33PM 41.2930 -75.2666 36° Northeast  Level Estimated
05:34PM 41.3791 -75.1823 36° Northeast  Level Estimated
05:35PM 41.4651 -75.0979 36° Northeast  Level Estimated
05:36PM 41.5510 -75.0132 36° Northeast  Level Estimated
05:37PM 41.6369 -74.9284 36° Northeast  Level Estimated
05:38PM 41.7227 -74.8432 37° Northeast  Level Estimated
05:39PM 41.8084 -74.7579 37° Northeast  Level Estimated
05:40PM 41.8941 -74.6723 37° Northeast  Level Estimated
05:41PM 41.9797 -74.5865 37° Northeast  Level Estimated
05:42PM 42.0653 -74.5005 37° Northeast  Level Estimated
05:43PM 42.1508 -74.4142 37° Northeast  Level Estimated
05:44PM 42.2362 -74.3277 37° Northeast  Level Estimated
05:45PM 42.3215 -74.2410 37° Northeast  Level Estimated
05:46PM 42.4068 -74.1540 37° Northeast  Level Estimated
05:47PM 42.4921 -74.0668 37° Northeast  Level Estimated
05:48PM 42.5772 -73.9794 37° Northeast  Level Estimated
05:49PM 42.6623 -73.8917 37° Northeast  Level Estimated
05:50PM 42.7473 -73.8038 37° Northeast  Level Estimated
05:51PM 42.7491 -73.8020 37° Northeast  Level Estimated
05:52PM 42.7491 -73.8020 304° West  Level Estimated
05:53PM 42.7491 -73.8020 304° West  Level Estimated
05:54PM 42.7491 -73.8020 304° West  Level Estimated
05:55PM 42.7491 -73.8020 304° West  Level Estimated
05:56PM 42.7491 -73.8020 304° West  Level Estimated
05:57PM 42.7491 -73.8020 304° West  Level Estimated
05:58PM 42.7491 -73.8020 304° West  Level Estimated
05:59PM 42.7491 -73.8020 304° West  Level Estimated
06:00PM 42.7491 -73.8020 304° West  Level Estimated